createdAt,value
2023-02-28T00:03:23.442Z,59.93
2023-02-28T00:07:26.910Z,59.96
2023-02-28T00:11:30.566Z,60.48
2023-02-28T00:15:35.513Z,60.11
2023-02-28T00:19:39.209Z,60.56
2023-02-28T00:23:42.395Z,60.49
2023-02-28T00:27:46.325Z,60.56
2023-02-28T00:31:51.446Z,61.19
2023-02-28T00:35:54.445Z,61.14
2023-02-28T00:39:57.725Z,61.38
2023-02-28T00:44:01.074Z,61.60
2023-02-28T00:48:07.466Z,61.55
2023-02-28T00:52:10.331Z,61.91
2023-02-28T00:56:13.710Z,62.29
2023-02-28T01:00:17.551Z,62.22
2023-02-28T01:04:22.366Z,62.10
2023-02-28T01:08:27.412Z,62.27
2023-02-28T01:12:31.125Z,62.44
2023-02-28T01:16:34.815Z,62.61
2023-02-28T01:20:40.317Z,62.75
2023-02-28T01:24:43.309Z,63.08
2023-02-28T01:28:46.354Z,62.97
2023-02-28T01:32:49.615Z,63.20
2023-02-28T01:36:54.575Z,63.09
2023-02-28T01:40:58.290Z,63.26
2023-02-28T01:45:19.502Z,63.39
2023-02-28T01:49:23.056Z,63.55
2023-02-28T01:53:34.610Z,63.50
2023-02-28T01:57:44.123Z,63.37
2023-02-28T02:01:47.117Z,63.68
2023-02-28T02:05:50.810Z,63.44
2023-02-28T02:10:13.656Z,63.71
2023-02-28T02:14:38.540Z,64.03
2023-02-28T02:18:49.218Z,63.80
2023-02-28T02:23:16.057Z,63.99
2023-02-28T02:27:26.964Z,64.10
2023-02-28T02:31:57.445Z,64.49
2023-02-28T02:36:10.005Z,64.19
2023-02-28T02:40:15.318Z,64.70
2023-02-28T02:44:25.173Z,63.94
2023-02-28T02:48:33.235Z,64.31
2023-02-28T02:52:44.829Z,64.49
2023-02-28T02:56:49.873Z,64.49
2023-02-28T03:00:57.353Z,64.58
2023-02-28T03:05:03.984Z,64.24
2023-02-28T03:09:08.531Z,64.37
2023-02-28T03:13:35.777Z,64.91
2023-02-28T03:17:59.400Z,64.85
2023-02-28T03:22:16.507Z,64.37
2023-02-28T03:26:25.236Z,64.69
2023-02-28T03:30:36.956Z,64.56
2023-02-28T03:34:44.966Z,64.97
2023-02-28T03:38:55.325Z,64.46
2023-02-28T03:43:04.118Z,64.54
2023-02-28T03:47:13.733Z,64.51
2023-02-28T03:51:20.698Z,64.34
2023-02-28T03:55:24.363Z,64.92
2023-02-28T03:59:33.940Z,65.08
2023-02-28T04:03:38.484Z,64.62
2023-02-28T04:07:42.198Z,64.66
2023-02-28T04:11:48.070Z,64.79
2023-02-28T04:15:53.488Z,65.00
2023-02-28T04:19:58.654Z,64.96
2023-02-28T04:24:01.956Z,64.60
2023-02-28T04:28:05.063Z,64.69
2023-02-28T04:32:09.822Z,64.96
2023-02-28T04:36:13.599Z,64.89
2023-02-28T04:40:17.015Z,64.63
2023-02-28T04:44:20.754Z,64.54
2023-02-28T04:48:26.057Z,64.28
2023-02-28T04:52:30.648Z,64.50
2023-02-28T04:56:33.742Z,64.01
2023-02-28T05:00:37.145Z,64.70
2023-02-28T05:04:42.048Z,64.21
2023-02-28T05:08:45.358Z,64.37
2023-02-28T05:12:49.574Z,64.47
2023-02-28T05:16:52.870Z,64.35
2023-02-28T05:20:57.964Z,64.42
2023-02-28T05:25:01.015Z,64.35
2023-02-28T05:29:04.767Z,64.31
2023-02-28T05:33:08.117Z,64.35
2023-02-28T05:37:15.530Z,64.50
2023-02-28T05:41:20.339Z,64.45
2023-02-28T05:45:23.718Z,64.54
2023-02-28T05:49:26.816Z,64.75
2023-02-28T05:53:32.158Z,64.94
2023-02-28T05:57:35.430Z,65.05
2023-02-28T06:01:40.477Z,64.64
2023-02-28T06:05:43.981Z,64.73
2023-02-28T06:09:50.118Z,64.85
2023-02-28T06:13:56.539Z,64.96
2023-02-28T06:18:00.880Z,64.88
2023-02-28T06:22:03.941Z,65.26
2023-02-28T06:26:09.839Z,64.86
2023-02-28T06:30:13.875Z,65.50
2023-02-28T06:34:17.372Z,65.21
2023-02-28T06:38:21.189Z,64.79
2023-02-28T06:42:30.058Z,63.89
2023-02-28T06:46:33.194Z,64.07
2023-02-28T06:50:36.265Z,62.77
2023-02-28T06:54:39.948Z,63.01
2023-02-28T06:58:45.016Z,62.49
2023-02-28T07:02:48.595Z,61.84
2023-02-28T07:06:51.794Z,62.66
2023-02-28T07:10:56.152Z,61.43
2023-02-28T07:15:00.728Z,60.20
2023-02-28T07:19:04.052Z,60.06
2023-02-28T07:23:07.409Z,59.36
2023-02-28T07:27:10.792Z,58.98
2023-02-28T07:31:17.338Z,57.78
2023-02-28T07:35:20.361Z,57.71
2023-02-28T07:39:24.954Z,56.31
2023-02-28T07:43:28.092Z,56.78
2023-02-28T07:47:33.821Z,55.41
2023-02-28T07:51:36.938Z,56.55
2023-02-28T07:55:39.798Z,55.61
2023-02-28T07:59:44.730Z,54.42
2023-02-28T08:03:50.343Z,53.96
2023-02-28T08:07:54.685Z,53.35
2023-02-28T08:11:58.055Z,52.99
2023-02-28T08:16:04.750Z,52.90
2023-02-28T08:20:11.413Z,53.33
2023-02-28T08:24:14.729Z,52.37
2023-02-28T08:28:17.846Z,52.73
2023-02-28T08:32:29.929Z,52.68
2023-02-28T08:36:35.493Z,52.16
2023-02-28T08:40:38.708Z,52.32
2023-02-28T08:44:42.078Z,52.19
2023-02-28T08:48:46.051Z,49.90
2023-02-28T08:52:51.052Z,49.86
2023-02-28T08:56:54.363Z,48.37
2023-02-28T09:00:57.685Z,49.81
2023-02-28T09:05:01.561Z,49.79
2023-02-28T09:09:08.786Z,49.33
2023-02-28T09:13:11.984Z,50.18
2023-02-28T09:17:14.899Z,49.43
2023-02-28T09:21:20.702Z,48.76
2023-02-28T09:25:25.424Z,50.25
2023-02-28T09:29:28.415Z,48.16
2023-02-28T09:33:31.570Z,49.35
2023-02-28T09:37:34.781Z,47.80
2023-02-28T09:47:34.801Z,49.86
2023-02-28T09:51:47.108Z,48.87
2023-02-28T09:55:55.933Z,48.74
2023-02-28T10:00:11.852Z,48.81
2023-02-28T10:04:26.558Z,48.84
2023-02-28T10:08:34.412Z,48.23
2023-02-28T10:12:43.040Z,46.84
2023-02-28T10:16:53.147Z,47.12
2023-02-28T10:20:58.792Z,48.32
2023-02-28T10:25:06.027Z,47.64
2023-02-28T10:29:11.204Z,47.18
2023-02-28T10:33:22.361Z,48.37
2023-02-28T10:37:27.193Z,45.53
2023-02-28T10:41:35.993Z,46.09
2023-02-28T10:45:39.379Z,45.21
2023-02-28T10:49:50.072Z,45.59
2023-02-28T10:54:01.352Z,44.31
2023-02-28T10:58:05.298Z,44.24
2023-02-28T11:06:43.100Z,45.45
2023-02-28T11:10:50.689Z,45.37
2023-02-28T11:14:57.015Z,44.79
2023-02-28T11:19:01.328Z,45.24
2023-02-28T11:23:06.224Z,47.36
2023-02-28T11:27:28.211Z,47.60
2023-02-28T11:31:31.904Z,43.66
2023-02-28T11:35:40.897Z,44.35
2023-02-28T11:39:44.150Z,45.67
2023-02-28T11:44:04.157Z,46.49
2023-02-28T11:48:16.864Z,43.95
2023-02-28T11:52:28.984Z,44.38
2023-02-28T11:56:35.850Z,45.12
2023-02-28T12:00:57.174Z,46.43
2023-02-28T12:05:20.533Z,46.90
2023-02-28T12:09:49.967Z,45.70
2023-02-28T12:14:06.206Z,45.73
2023-02-28T12:18:37.271Z,46.48
2023-02-28T12:22:48.832Z,44.31
2023-02-28T12:26:55.162Z,45.14
2023-02-28T12:31:03.701Z,43.59
2023-02-28T12:35:16.074Z,45.54
2023-02-28T12:39:25.451Z,43.49
2023-02-28T12:43:35.359Z,43.32
2023-02-28T12:47:40.534Z,43.38
2023-02-28T12:51:47.059Z,43.56
2023-02-28T12:55:55.481Z,45.25
2023-02-28T13:00:02.019Z,43.74
2023-02-28T13:04:44.763Z,45.71
2023-02-28T13:09:03.535Z,47.50
2023-02-28T13:13:06.441Z,43.67
2023-02-28T13:17:15.109Z,44.01
2023-02-28T13:21:26.992Z,44.87
2023-02-28T13:25:59.057Z,47.22
2023-02-28T13:30:03.341Z,45.13
2023-02-28T13:34:18.639Z,45.39
2023-02-28T13:38:33.968Z,45.15
2023-02-28T13:42:51.419Z,44.19
2023-02-28T13:47:29.837Z,47.16
2023-02-28T13:51:44.148Z,47.25
2023-02-28T13:55:54.425Z,45.32
2023-02-28T14:00:19.263Z,46.90
2023-02-28T14:04:54.148Z,46.24
2023-02-28T14:09:00.919Z,45.24
2023-02-28T14:13:14.092Z,44.55
2023-02-28T14:17:19.723Z,43.60
2023-02-28T14:21:27.270Z,44.66
2023-02-28T14:25:39.443Z,45.27
2023-02-28T14:30:06.048Z,44.88
2023-02-28T14:34:28.214Z,43.59
2023-02-28T14:38:34.833Z,44.03
2023-02-28T14:42:42.844Z,44.06
2023-02-28T14:46:48.161Z,42.57
2023-02-28T14:50:55.081Z,44.18
2023-02-28T14:55:01.014Z,44.37
2023-02-28T14:59:04.343Z,45.60
2023-02-28T15:03:21.369Z,48.04
2023-02-28T15:07:29.620Z,46.67
2023-02-28T15:16:01.200Z,45.55
2023-02-28T15:20:08.139Z,50.47
2023-02-28T15:24:25.219Z,46.46
2023-02-28T15:28:28.432Z,44.64
2023-02-28T15:32:36.822Z,45.86
2023-02-28T15:36:40.079Z,45.68
2023-02-28T15:40:46.898Z,45.47
2023-02-28T15:44:50.271Z,45.04
2023-02-28T15:48:57.246Z,46.09
2023-02-28T15:53:00.377Z,44.75
2023-02-28T15:57:09.999Z,46.66
2023-02-28T16:01:23.315Z,47.31
2023-02-28T16:05:33.331Z,45.64
2023-02-28T16:09:38.699Z,46.72
2023-02-28T16:13:43.820Z,47.10
2023-02-28T16:17:47.877Z,48.81
2023-02-28T16:21:52.126Z,48.57
2023-02-28T16:25:55.080Z,48.88
2023-02-28T16:30:07.827Z,49.88
2023-02-28T16:34:11.200Z,50.00
2023-02-28T16:38:14.933Z,50.74
2023-02-28T16:42:23.337Z,50.41
2023-02-28T16:46:30.804Z,50.94
2023-02-28T16:50:39.769Z,50.83
2023-02-28T16:54:44.124Z,50.30
2023-02-28T16:58:47.902Z,50.85
2023-02-28T17:02:53.149Z,51.12
2023-02-28T17:06:56.205Z,51.38
2023-02-28T17:11:00.041Z,51.41
2023-02-28T17:15:03.237Z,51.46
2023-02-28T17:19:09.614Z,51.64
2023-02-28T17:23:12.667Z,51.17
2023-02-28T17:27:15.856Z,51.82
2023-02-28T17:31:19.321Z,51.68
2023-02-28T17:35:24.516Z,51.91
2023-02-28T17:39:28.121Z,52.36
2023-02-28T17:43:31.379Z,52.45
2023-02-28T17:47:34.370Z,52.13
2023-02-28T17:51:39.533Z,52.42
2023-02-28T17:55:42.881Z,52.42
2023-02-28T17:59:46.366Z,52.37
2023-02-28T18:03:49.668Z,52.68
2023-02-28T18:07:55.417Z,52.69
2023-02-28T18:11:58.693Z,52.71
2023-02-28T18:16:01.707Z,53.09
2023-02-28T18:20:07.006Z,52.30
2023-02-28T18:24:12.459Z,53.51
2023-02-28T18:28:15.580Z,52.33
2023-02-28T18:32:19.047Z,53.36
2023-02-28T18:36:24.030Z,53.77
2023-02-28T18:40:28.431Z,53.43
2023-02-28T18:44:33.726Z,53.61
2023-02-28T18:48:37.254Z,54.07
2023-02-28T18:52:41.148Z,53.07
2023-02-28T18:56:46.015Z,54.02
2023-02-28T19:00:49.554Z,54.02
2023-02-28T19:04:52.822Z,54.17
2023-02-28T19:08:56.993Z,54.54
2023-02-28T19:13:01.957Z,55.02
2023-02-28T19:17:05.277Z,54.66
2023-02-28T19:21:10.741Z,54.85
2023-02-28T19:25:13.695Z,55.23
2023-02-28T19:29:18.262Z,55.01
2023-02-28T19:33:21.900Z,55.18
2023-02-28T19:37:27.587Z,55.69
2023-02-28T19:41:30.732Z,55.29
2023-02-28T19:45:37.292Z,55.80
2023-02-28T19:49:40.312Z,55.97
2023-02-28T19:53:45.210Z,56.57
2023-02-28T19:57:48.138Z,56.97
2023-02-28T20:01:55.238Z,57.37
2023-02-28T20:06:02.748Z,57.98
2023-02-28T20:10:07.883Z,58.11
2023-02-28T20:14:13.522Z,58.89
2023-02-28T20:18:18.896Z,58.97
2023-02-28T20:22:21.760Z,59.12
2023-02-28T20:26:24.969Z,59.86
2023-02-28T20:30:28.200Z,60.29
2023-02-28T20:34:32.904Z,60.68
2023-02-28T20:38:37.781Z,60.76
2023-02-28T20:42:40.984Z,61.09
2023-02-28T20:46:43.914Z,61.45
2023-02-28T20:50:51.787Z,61.59
2023-02-28T20:54:54.698Z,62.11
2023-02-28T20:58:58.738Z,62.49
2023-02-28T21:03:01.667Z,62.35
2023-02-28T21:07:06.452Z,62.96
2023-02-28T21:11:10.548Z,63.13
2023-02-28T21:15:13.834Z,63.17
2023-02-28T21:19:18.657Z,63.29
2023-02-28T21:23:25.009Z,63.54
2023-02-28T21:27:28.150Z,63.57
2023-02-28T21:31:34.696Z,63.92
2023-02-28T21:35:38.982Z,63.98
2023-02-28T21:39:43.228Z,64.14
2023-02-28T21:43:48.272Z,64.63
2023-02-28T21:47:51.470Z,64.68
2023-02-28T21:51:54.856Z,64.77
2023-02-28T21:56:02.987Z,64.93
2023-02-28T22:00:07.680Z,65.31
2023-02-28T22:04:21.738Z,65.30
2023-02-28T22:08:24.634Z,65.56
2023-02-28T22:12:31.234Z,65.30
2023-02-28T22:16:50.151Z,65.29
2023-02-28T22:20:55.770Z,65.36
2023-02-28T22:24:59.793Z,65.16
2023-02-28T22:29:05.833Z,64.96
2023-02-28T22:33:08.760Z,64.83
2023-02-28T22:37:12.319Z,64.62
2023-02-28T22:41:16.043Z,64.25
2023-02-28T22:45:20.728Z,63.84
2023-02-28T22:49:24.501Z,63.79
2023-02-28T22:53:27.681Z,64.06
2023-02-28T22:57:31.285Z,63.92
2023-02-28T23:01:36.265Z,64.07
2023-02-28T23:05:39.495Z,63.91
2023-02-28T23:09:42.454Z,63.84
2023-02-28T23:13:46.901Z,63.86
2023-02-28T23:17:52.172Z,63.72
2023-02-28T23:21:55.207Z,63.78
2023-02-28T23:25:58.698Z,63.99
2023-02-28T23:30:03.067Z,64.01
2023-02-28T23:34:07.905Z,63.98
2023-02-28T23:38:15.120Z,64.09
2023-02-28T23:42:18.246Z,63.91
2023-02-28T23:46:22.276Z,64.34
2023-02-28T23:50:26.833Z,64.13
2023-02-28T23:54:30.310Z,64.03
2023-02-28T23:58:33.538Z,64.37
